sensor_id;sensor_type;location;lat;lon;timestamp;P1;durP1;ratioP1;P2;durP2;ratioP2
32523;SDS011;18965;52.242;20.886;2023-03-23T00:01:55;40.17;;;23.88;;
32523;SDS011;18965;52.242;20.886;2023-03-23T00:04:21;39.35;;;22.27;;
32523;SDS011;18965;52.242;20.886;2023-03-23T00:06:47;40.20;;;24.02;;
32523;SDS011;18965;52.242;20.886;2023-03-23T00:09:14;37.53;;;22.70;;
32523;SDS011;18965;52.242;20.886;2023-03-23T00:11:41;41.30;;;22.90;;
32523;SDS011;18965;52.242;20.886;2023-03-23T00:14:09;38.90;;;22.75;;
32523;SDS011;18965;52.242;20.886;2023-03-23T00:16:39;44.25;;;23.13;;
32523;SDS011;18965;52.242;20.886;2023-03-23T00:19:12;40.05;;;22.58;;
32523;SDS011;18965;52.242;20.886;2023-03-23T00:21:38;39.90;;;23.02;;
32523;SDS011;18965;52.242;20.886;2023-03-23T00:26:41;36.78;;;22.23;;
32523;SDS011;18965;52.242;20.886;2023-03-23T00:29:13;36.65;;;21.45;;
32523;SDS011;18965;52.242;20.886;2023-03-23T00:31:41;40.00;;;22.08;;
32523;SDS011;18965;52.242;20.886;2023-03-23T00:34:11;43.05;;;23.40;;
32523;SDS011;18965;52.242;20.886;2023-03-23T00:36:52;37.55;;;23.10;;
32523;SDS011;18965;52.242;20.886;2023-03-23T00:39:21;34.88;;;21.05;;
32523;SDS011;18965;52.242;20.886;2023-03-23T00:41:50;40.53;;;22.13;;
32523;SDS011;18965;52.242;20.886;2023-03-23T00:44:16;39.15;;;23.02;;
32523;SDS011;18965;52.242;20.886;2023-03-23T00:46:42;42.83;;;22.80;;
32523;SDS011;18965;52.242;20.886;2023-03-23T00:49:14;38.28;;;21.45;;
32523;SDS011;18965;52.242;20.886;2023-03-23T00:51:42;43.03;;;23.27;;
32523;SDS011;18965;52.242;20.886;2023-03-23T00:54:08;39.78;;;22.88;;
32523;SDS011;18965;52.242;20.886;2023-03-23T00:56:35;38.55;;;21.83;;
32523;SDS011;18965;52.242;20.886;2023-03-23T00:59:01;39.97;;;21.83;;
32523;SDS011;18965;52.242;20.886;2023-03-23T01:01:28;39.20;;;22.58;;
32523;SDS011;18965;52.242;20.886;2023-03-23T01:03:54;39.97;;;22.00;;
32523;SDS011;18965;52.242;20.886;2023-03-23T01:06:25;35.97;;;21.20;;
32523;SDS011;18965;52.242;20.886;2023-03-23T01:09:00;42.95;;;21.52;;
32523;SDS011;18965;52.242;20.886;2023-03-23T01:11:27;37.85;;;22.88;;
32523;SDS011;18965;52.242;20.886;2023-03-23T01:13:53;39.13;;;22.33;;
32523;SDS011;18965;52.242;20.886;2023-03-23T01:16:19;37.25;;;22.27;;
32523;SDS011;18965;52.242;20.886;2023-03-23T01:18:45;34.70;;;20.88;;
32523;SDS011;18965;52.242;20.886;2023-03-23T01:21:12;41.10;;;20.95;;
32523;SDS011;18965;52.242;20.886;2023-03-23T01:23:41;35.70;;;20.25;;
32523;SDS011;18965;52.242;20.886;2023-03-23T01:26:08;36.40;;;20.10;;
32523;SDS011;18965;52.242;20.886;2023-03-23T01:28:36;39.38;;;21.77;;
32523;SDS011;18965;52.242;20.886;2023-03-23T01:31:03;36.50;;;20.20;;
32523;SDS011;18965;52.242;20.886;2023-03-23T01:33:31;37.05;;;21.13;;
32523;SDS011;18965;52.242;20.886;2023-03-23T01:35:57;37.45;;;21.90;;
32523;SDS011;18965;52.242;20.886;2023-03-23T01:38:27;38.33;;;21.33;;
32523;SDS011;18965;52.242;20.886;2023-03-23T01:40:52;33.00;;;19.73;;
32523;SDS011;18965;52.242;20.886;2023-03-23T01:43:18;34.85;;;21.58;;
32523;SDS011;18965;52.242;20.886;2023-03-23T01:45:44;38.45;;;20.30;;
32523;SDS011;18965;52.242;20.886;2023-03-23T01:48:15;37.45;;;20.80;;
32523;SDS011;18965;52.242;20.886;2023-03-23T01:50:48;32.88;;;19.58;;
32523;SDS011;18965;52.242;20.886;2023-03-23T01:53:19;34.35;;;20.45;;
32523;SDS011;18965;52.242;20.886;2023-03-23T01:55:47;30.63;;;18.73;;
32523;SDS011;18965;52.242;20.886;2023-03-23T01:58:17;30.83;;;18.60;;
32523;SDS011;18965;52.242;20.886;2023-03-23T02:00:50;33.25;;;18.88;;
32523;SDS011;18965;52.242;20.886;2023-03-23T02:03:18;27.98;;;17.63;;
32523;SDS011;18965;52.242;20.886;2023-03-23T02:05:48;30.17;;;17.65;;
32523;SDS011;18965;52.242;20.886;2023-03-23T02:08:15;31.58;;;18.40;;
32523;SDS011;18965;52.242;20.886;2023-03-23T02:10:43;32.70;;;19.85;;
32523;SDS011;18965;52.242;20.886;2023-03-23T02:13:09;32.00;;;18.38;;
32523;SDS011;18965;52.242;20.886;2023-03-23T02:28:59;30.75;;;17.85;;
32523;SDS011;18965;52.242;20.886;2023-03-23T02:34:50;30.23;;;17.65;;
32523;SDS011;18965;52.242;20.886;2023-03-23T02:37:31;29.38;;;17.27;;
32523;SDS011;18965;52.242;20.886;2023-03-23T02:42:36;27.98;;;17.05;;
32523;SDS011;18965;52.242;20.886;2023-03-23T02:47:32;26.25;;;16.95;;
32523;SDS011;18965;52.242;20.886;2023-03-23T02:50:00;29.35;;;17.42;;
32523;SDS011;18965;52.242;20.886;2023-03-23T02:52:29;30.60;;;17.65;;
32523;SDS011;18965;52.242;20.886;2023-03-23T02:54:56;27.45;;;16.83;;
32523;SDS011;18965;52.242;20.886;2023-03-23T02:57:25;33.00;;;18.27;;
32523;SDS011;18965;52.242;20.886;2023-03-23T02:59:52;31.77;;;17.83;;
32523;SDS011;18965;52.242;20.886;2023-03-23T03:02:19;28.98;;;17.90;;
32523;SDS011;18965;52.242;20.886;2023-03-23T03:10:34;29.55;;;17.30;;
32523;SDS011;18965;52.242;20.886;2023-03-23T03:16:24;28.60;;;16.13;;
32523;SDS011;18965;52.242;20.886;2023-03-23T03:18:59;18.30;;;11.40;;
32523;SDS011;18965;52.242;20.886;2023-03-23T03:21:37;25.42;;;15.13;;
32523;SDS011;18965;52.242;20.886;2023-03-23T03:24:07;24.63;;;14.93;;
32523;SDS011;18965;52.242;20.886;2023-03-23T03:26:36;26.77;;;15.03;;
32523;SDS011;18965;52.242;20.886;2023-03-23T03:29:06;26.85;;;14.73;;
32523;SDS011;18965;52.242;20.886;2023-03-23T03:31:34;25.45;;;14.77;;
32523;SDS011;18965;52.242;20.886;2023-03-23T03:34:03;25.88;;;15.20;;
32523;SDS011;18965;52.242;20.886;2023-03-23T03:36:31;24.38;;;14.82;;
32523;SDS011;18965;52.242;20.886;2023-03-23T03:39:04;24.75;;;15.13;;
32523;SDS011;18965;52.242;20.886;2023-03-23T03:41:33;23.38;;;14.15;;
32523;SDS011;18965;52.242;20.886;2023-03-23T03:44:00;22.77;;;14.82;;
32523;SDS011;18965;52.242;20.886;2023-03-23T03:46:26;24.15;;;15.38;;
32523;SDS011;18965;52.242;20.886;2023-03-23T03:48:54;25.85;;;15.52;;
32523;SDS011;18965;52.242;20.886;2023-03-23T03:51:24;23.30;;;14.40;;
32523;SDS011;18965;52.242;20.886;2023-03-23T03:53:51;25.20;;;14.43;;
32523;SDS011;18965;52.242;20.886;2023-03-23T03:56:17;21.25;;;13.60;;
32523;SDS011;18965;52.242;20.886;2023-03-23T03:58:45;24.27;;;14.88;;
32523;SDS011;18965;52.242;20.886;2023-03-23T04:01:13;22.52;;;13.77;;
32523;SDS011;18965;52.242;20.886;2023-03-23T04:03:41;25.30;;;13.27;;
32523;SDS011;18965;52.242;20.886;2023-03-23T04:06:07;25.58;;;14.70;;
32523;SDS011;18965;52.242;20.886;2023-03-23T04:08:34;25.77;;;15.63;;
32523;SDS011;18965;52.242;20.886;2023-03-23T04:11:02;30.73;;;17.25;;
32523;SDS011;18965;52.242;20.886;2023-03-23T04:13:29;30.27;;;16.75;;
32523;SDS011;18965;52.242;20.886;2023-03-23T04:15:55;30.83;;;15.93;;
32523;SDS011;18965;52.242;20.886;2023-03-23T04:18:21;28.02;;;15.13;;
32523;SDS011;18965;52.242;20.886;2023-03-23T04:20:48;30.00;;;15.52;;
32523;SDS011;18965;52.242;20.886;2023-03-23T04:23:15;32.00;;;16.20;;
32523;SDS011;18965;52.242;20.886;2023-03-23T04:25:48;29.58;;;14.98;;
32523;SDS011;18965;52.242;20.886;2023-03-23T04:30:49;26.73;;;15.77;;
32523;SDS011;18965;52.242;20.886;2023-03-23T04:33:24;27.23;;;15.17;;
32523;SDS011;18965;52.242;20.886;2023-03-23T04:35:52;27.27;;;15.07;;
32523;SDS011;18965;52.242;20.886;2023-03-23T04:38:20;23.27;;;14.23;;
32523;SDS011;18965;52.242;20.886;2023-03-23T04:40:48;25.35;;;15.32;;
32523;SDS011;18965;52.242;20.886;2023-03-23T04:43:21;26.75;;;14.60;;
32523;SDS011;18965;52.242;20.886;2023-03-23T04:45:55;28.55;;;15.38;;
32523;SDS011;18965;52.242;20.886;2023-03-23T04:48:23;24.05;;;14.45;;
32523;SDS011;18965;52.242;20.886;2023-03-23T04:50:52;22.80;;;13.30;;
32523;SDS011;18965;52.242;20.886;2023-03-23T04:53:19;30.38;;;15.23;;
32523;SDS011;18965;52.242;20.886;2023-03-23T04:55:46;24.27;;;14.23;;
32523;SDS011;18965;52.242;20.886;2023-03-23T04:58:13;25.75;;;14.52;;
32523;SDS011;18965;52.242;20.886;2023-03-23T05:00:39;22.65;;;14.07;;
32523;SDS011;18965;52.242;20.886;2023-03-23T05:03:05;27.73;;;13.90;;
32523;SDS011;18965;52.242;20.886;2023-03-23T05:05:33;29.92;;;15.13;;
32523;SDS011;18965;52.242;20.886;2023-03-23T05:07:59;32.70;;;14.45;;
32523;SDS011;18965;52.242;20.886;2023-03-23T05:10:25;24.95;;;14.82;;
32523;SDS011;18965;52.242;20.886;2023-03-23T05:12:52;25.42;;;14.63;;
32523;SDS011;18965;52.242;20.886;2023-03-23T05:15:18;28.40;;;14.55;;
32523;SDS011;18965;52.242;20.886;2023-03-23T05:17:44;24.48;;;13.20;;
32523;SDS011;18965;52.242;20.886;2023-03-23T05:20:10;24.75;;;13.57;;
32523;SDS011;18965;52.242;20.886;2023-03-23T05:22:38;27.05;;;13.02;;
32523;SDS011;18965;52.242;20.886;2023-03-23T05:25:04;24.02;;;13.00;;
32523;SDS011;18965;52.242;20.886;2023-03-23T05:27:34;29.48;;;14.88;;
32523;SDS011;18965;52.242;20.886;2023-03-23T05:30:00;26.45;;;13.82;;
32523;SDS011;18965;52.242;20.886;2023-03-23T05:32:26;23.92;;;14.27;;
32523;SDS011;18965;52.242;20.886;2023-03-23T05:34:54;23.80;;;12.98;;
32523;SDS011;18965;52.242;20.886;2023-03-23T05:37:21;26.35;;;14.05;;
32523;SDS011;18965;52.242;20.886;2023-03-23T05:39:47;26.33;;;14.23;;
32523;SDS011;18965;52.242;20.886;2023-03-23T05:42:13;22.38;;;13.90;;
32523;SDS011;18965;52.242;20.886;2023-03-23T05:44:39;28.67;;;13.73;;
32523;SDS011;18965;52.242;20.886;2023-03-23T05:47:05;27.60;;;13.68;;
32523;SDS011;18965;52.242;20.886;2023-03-23T05:49:30;23.67;;;12.77;;
32523;SDS011;18965;52.242;20.886;2023-03-23T05:51:56;22.88;;;13.27;;
32523;SDS011;18965;52.242;20.886;2023-03-23T05:54:22;27.50;;;13.05;;
32523;SDS011;18965;52.242;20.886;2023-03-23T05:56:48;22.05;;;13.43;;
32523;SDS011;18965;52.242;20.886;2023-03-23T05:59:14;24.75;;;12.07;;
32523;SDS011;18965;52.242;20.886;2023-03-23T06:01:40;20.95;;;12.98;;
32523;SDS011;18965;52.242;20.886;2023-03-23T06:04:06;20.88;;;12.48;;
32523;SDS011;18965;52.242;20.886;2023-03-23T06:06:31;22.42;;;12.32;;
32523;SDS011;18965;52.242;20.886;2023-03-23T06:09:01;22.23;;;12.48;;
32523;SDS011;18965;52.242;20.886;2023-03-23T06:11:28;21.00;;;11.88;;
32523;SDS011;18965;52.242;20.886;2023-03-23T06:14:03;21.40;;;12.27;;
32523;SDS011;18965;52.242;20.886;2023-03-23T06:16:33;25.85;;;11.93;;
32523;SDS011;18965;52.242;20.886;2023-03-23T06:18:59;23.08;;;12.55;;
32523;SDS011;18965;52.242;20.886;2023-03-23T06:21:26;22.45;;;12.18;;
32523;SDS011;18965;52.242;20.886;2023-03-23T06:23:53;20.35;;;11.60;;
32523;SDS011;18965;52.242;20.886;2023-03-23T06:26:19;20.45;;;11.82;;
32523;SDS011;18965;52.242;20.886;2023-03-23T06:31:14;17.38;;;11.15;;
32523;SDS011;18965;52.242;20.886;2023-03-23T06:33:42;21.58;;;11.07;;
32523;SDS011;18965;52.242;20.886;2023-03-23T06:36:08;20.40;;;11.40;;
32523;SDS011;18965;52.242;20.886;2023-03-23T06:38:36;17.08;;;11.07;;
32523;SDS011;18965;52.242;20.886;2023-03-23T06:41:03;16.67;;;9.98;;
32523;SDS011;18965;52.242;20.886;2023-03-23T06:43:29;18.90;;;11.18;;
32523;SDS011;18965;52.242;20.886;2023-03-23T06:45:57;23.42;;;11.55;;
32523;SDS011;18965;52.242;20.886;2023-03-23T06:48:23;18.83;;;11.55;;
32523;SDS011;18965;52.242;20.886;2023-03-23T06:50:49;18.27;;;11.13;;
32523;SDS011;18965;52.242;20.886;2023-03-23T06:53:15;20.70;;;11.15;;
32523;SDS011;18965;52.242;20.886;2023-03-23T06:55:42;20.15;;;10.82;;
32523;SDS011;18965;52.242;20.886;2023-03-23T06:58:09;22.52;;;10.75;;
32523;SDS011;18965;52.242;20.886;2023-03-23T07:00:35;21.35;;;10.65;;
32523;SDS011;18965;52.242;20.886;2023-03-23T07:03:01;19.75;;;10.45;;
32523;SDS011;18965;52.242;20.886;2023-03-23T07:05:27;14.93;;;9.60;;
32523;SDS011;18965;52.242;20.886;2023-03-23T07:07:53;21.23;;;9.45;;
32523;SDS011;18965;52.242;20.886;2023-03-23T07:10:19;15.27;;;9.50;;
32523;SDS011;18965;52.242;20.886;2023-03-23T07:12:45;16.63;;;9.95;;
32523;SDS011;18965;52.242;20.886;2023-03-23T07:15:11;17.02;;;8.93;;
32523;SDS011;18965;52.242;20.886;2023-03-23T07:17:38;16.40;;;8.95;;
32523;SDS011;18965;52.242;20.886;2023-03-23T07:20:05;12.45;;;8.43;;
32523;SDS011;18965;52.242;20.886;2023-03-23T07:22:31;17.55;;;9.55;;
32523;SDS011;18965;52.242;20.886;2023-03-23T07:24:57;13.77;;;8.50;;
32523;SDS011;18965;52.242;20.886;2023-03-23T07:27:23;13.20;;;8.60;;
32523;SDS011;18965;52.242;20.886;2023-03-23T07:29:49;15.73;;;9.13;;
32523;SDS011;18965;52.242;20.886;2023-03-23T07:32:15;13.85;;;8.25;;
32523;SDS011;18965;52.242;20.886;2023-03-23T07:34:41;14.43;;;8.75;;
32523;SDS011;18965;52.242;20.886;2023-03-23T07:37:07;17.20;;;9.35;;
32523;SDS011;18965;52.242;20.886;2023-03-23T07:39:33;16.50;;;8.80;;
32523;SDS011;18965;52.242;20.886;2023-03-23T07:42:00;15.65;;;8.90;;
32523;SDS011;18965;52.242;20.886;2023-03-23T07:44:26;13.43;;;8.43;;
32523;SDS011;18965;52.242;20.886;2023-03-23T07:46:51;15.85;;;8.95;;
32523;SDS011;18965;52.242;20.886;2023-03-23T07:49:18;12.63;;;8.55;;
32523;SDS011;18965;52.242;20.886;2023-03-23T07:51:44;16.70;;;8.57;;
32523;SDS011;18965;52.242;20.886;2023-03-23T07:54:10;14.93;;;8.35;;
32523;SDS011;18965;52.242;20.886;2023-03-23T07:56:37;14.23;;;7.35;;
32523;SDS011;18965;52.242;20.886;2023-03-23T07:59:05;14.00;;;7.80;;
32523;SDS011;18965;52.242;20.886;2023-03-23T08:01:31;18.52;;;8.23;;
32523;SDS011;18965;52.242;20.886;2023-03-23T08:03:58;14.93;;;7.97;;
32523;SDS011;18965;52.242;20.886;2023-03-23T08:06:24;21.02;;;8.40;;
32523;SDS011;18965;52.242;20.886;2023-03-23T08:08:50;14.15;;;7.72;;
32523;SDS011;18965;52.242;20.886;2023-03-23T08:11:17;12.88;;;7.20;;
32523;SDS011;18965;52.242;20.886;2023-03-23T08:13:43;14.68;;;7.35;;
32523;SDS011;18965;52.242;20.886;2023-03-23T08:16:10;14.30;;;7.70;;
32523;SDS011;18965;52.242;20.886;2023-03-23T08:18:37;13.40;;;7.40;;
32523;SDS011;18965;52.242;20.886;2023-03-23T08:21:04;12.75;;;7.05;;
32523;SDS011;18965;52.242;20.886;2023-03-23T08:23:32;13.30;;;7.97;;
32523;SDS011;18965;52.242;20.886;2023-03-23T08:25:58;12.75;;;7.30;;
32523;SDS011;18965;52.242;20.886;2023-03-23T08:28:27;13.52;;;7.53;;
32523;SDS011;18965;52.242;20.886;2023-03-23T08:30:54;12.32;;;6.47;;
32523;SDS011;18965;52.242;20.886;2023-03-23T08:33:20;11.35;;;6.93;;
32523;SDS011;18965;52.242;20.886;2023-03-23T08:35:53;13.85;;;7.13;;
32523;SDS011;18965;52.242;20.886;2023-03-23T08:38:21;12.98;;;7.47;;
32523;SDS011;18965;52.242;20.886;2023-03-23T08:40:47;10.60;;;6.85;;
32523;SDS011;18965;52.242;20.886;2023-03-23T08:43:13;11.13;;;7.00;;
32523;SDS011;18965;52.242;20.886;2023-03-23T08:45:40;12.80;;;6.43;;
32523;SDS011;18965;52.242;20.886;2023-03-23T08:48:06;12.55;;;6.35;;
32523;SDS011;18965;52.242;20.886;2023-03-23T08:50:32;14.00;;;6.97;;
32523;SDS011;18965;52.242;20.886;2023-03-23T08:53:01;9.38;;;6.05;;
32523;SDS011;18965;52.242;20.886;2023-03-23T08:55:28;9.25;;;6.30;;
32523;SDS011;18965;52.242;20.886;2023-03-23T08:57:54;11.45;;;6.07;;
32523;SDS011;18965;52.242;20.886;2023-03-23T09:00:21;10.32;;;5.90;;
32523;SDS011;18965;52.242;20.886;2023-03-23T09:02:50;12.23;;;6.32;;
32523;SDS011;18965;52.242;20.886;2023-03-23T09:05:18;15.57;;;6.25;;
32523;SDS011;18965;52.242;20.886;2023-03-23T09:07:47;8.60;;;5.70;;
32523;SDS011;18965;52.242;20.886;2023-03-23T09:10:14;12.07;;;6.45;;
32523;SDS011;18965;52.242;20.886;2023-03-23T09:12:41;10.25;;;5.43;;
32523;SDS011;18965;52.242;20.886;2023-03-23T09:15:10;9.70;;;5.80;;
32523;SDS011;18965;52.242;20.886;2023-03-23T09:17:41;11.52;;;5.80;;
32523;SDS011;18965;52.242;20.886;2023-03-23T09:20:09;9.63;;;5.28;;
32523;SDS011;18965;52.242;20.886;2023-03-23T09:22:40;7.28;;;4.90;;
32523;SDS011;18965;52.242;20.886;2023-03-23T09:25:11;10.30;;;5.18;;
32523;SDS011;18965;52.242;20.886;2023-03-23T09:27:39;11.10;;;5.38;;
32523;SDS011;18965;52.242;20.886;2023-03-23T09:30:06;14.07;;;6.07;;
32523;SDS011;18965;52.242;20.886;2023-03-23T09:32:35;8.38;;;5.35;;
32523;SDS011;18965;52.242;20.886;2023-03-23T09:35:03;12.65;;;5.50;;
32523;SDS011;18965;52.242;20.886;2023-03-23T09:37:35;9.25;;;4.22;;
32523;SDS011;18965;52.242;20.886;2023-03-23T09:40:02;9.80;;;4.88;;
32523;SDS011;18965;52.242;20.886;2023-03-23T09:45:25;8.45;;;4.90;;
32523;SDS011;18965;52.242;20.886;2023-03-23T09:50:45;9.23;;;4.30;;
32523;SDS011;18965;52.242;20.886;2023-03-23T09:53:21;9.30;;;4.13;;
32523;SDS011;18965;52.242;20.886;2023-03-23T09:55:51;5.97;;;4.05;;
32523;SDS011;18965;52.242;20.886;2023-03-23T09:58:28;5.70;;;3.47;;
32523;SDS011;18965;52.242;20.886;2023-03-23T10:01:02;7.82;;;3.88;;
32523;SDS011;18965;52.242;20.886;2023-03-23T10:03:41;5.22;;;3.45;;
32523;SDS011;18965;52.242;20.886;2023-03-23T10:06:09;5.38;;;3.28;;
32523;SDS011;18965;52.242;20.886;2023-03-23T10:08:39;4.28;;;3.05;;
32523;SDS011;18965;52.242;20.886;2023-03-23T10:22:25;8.40;;;3.67;;
32523;SDS011;18965;52.242;20.886;2023-03-23T10:25:00;7.82;;;3.72;;
32523;SDS011;18965;52.242;20.886;2023-03-23T10:30:32;10.85;;;3.97;;
32523;SDS011;18965;52.242;20.886;2023-03-23T10:35:56;13.13;;;4.18;;
32523;SDS011;18965;52.242;20.886;2023-03-23T10:39:12;5.07;;;3.60;;
32523;SDS011;18965;52.242;20.886;2023-03-23T10:41:42;9.07;;;3.88;;
32523;SDS011;18965;52.242;20.886;2023-03-23T10:44:19;9.02;;;4.07;;
32523;SDS011;18965;52.242;20.886;2023-03-23T10:55:01;7.88;;;5.13;;
32523;SDS011;18965;52.242;20.886;2023-03-23T10:57:31;5.80;;;3.50;;
32523;SDS011;18965;52.242;20.886;2023-03-23T11:00:01;4.32;;;3.00;;
32523;SDS011;18965;52.242;20.886;2023-03-23T11:03:01;6.32;;;3.38;;
32523;SDS011;18965;52.242;20.886;2023-03-23T11:08:22;5.95;;;3.45;;
32523;SDS011;18965;52.242;20.886;2023-03-23T11:10:54;7.00;;;3.42;;
32523;SDS011;18965;52.242;20.886;2023-03-23T11:13:23;6.68;;;3.67;;
32523;SDS011;18965;52.242;20.886;2023-03-23T11:15:55;5.47;;;3.05;;
32523;SDS011;18965;52.242;20.886;2023-03-23T11:18:23;6.50;;;3.15;;
32523;SDS011;18965;52.242;20.886;2023-03-23T11:20:54;7.55;;;3.85;;
32523;SDS011;18965;52.242;20.886;2023-03-23T11:23:27;5.68;;;3.10;;
32523;SDS011;18965;52.242;20.886;2023-03-23T11:28:59;5.00;;;2.88;;
32523;SDS011;18965;52.242;20.886;2023-03-23T11:31:32;6.50;;;3.10;;
32523;SDS011;18965;52.242;20.886;2023-03-23T11:34:11;6.43;;;2.95;;
32523;SDS011;18965;52.242;20.886;2023-03-23T11:36:48;4.78;;;3.10;;
32523;SDS011;18965;52.242;20.886;2023-03-23T11:39:26;7.60;;;3.22;;
32523;SDS011;18965;52.242;20.886;2023-03-23T11:41:59;6.38;;;2.40;;
32523;SDS011;18965;52.242;20.886;2023-03-23T11:44:34;7.63;;;2.67;;
32523;SDS011;18965;52.242;20.886;2023-03-23T11:52:52;3.15;;;2.42;;
32523;SDS011;18965;52.242;20.886;2023-03-23T11:55:32;5.15;;;2.70;;
32523;SDS011;18965;52.242;20.886;2023-03-23T11:58:12;7.53;;;2.45;;
32523;SDS011;18965;52.242;20.886;2023-03-23T12:03:15;3.30;;;2.30;;
32523;SDS011;18965;52.242;20.886;2023-03-23T12:05:50;8.65;;;2.65;;
32523;SDS011;18965;52.242;20.886;2023-03-23T12:25:19;5.93;;;2.78;;
32523;SDS011;18965;52.242;20.886;2023-03-23T12:31:06;5.05;;;2.63;;
32523;SDS011;18965;52.242;20.886;2023-03-23T12:33:26;7.13;;;3.10;;
32523;SDS011;18965;52.242;20.886;2023-03-23T12:36:09;6.85;;;3.40;;
32523;SDS011;18965;52.242;20.886;2023-03-23T12:44:46;5.68;;;3.03;;
32523;SDS011;18965;52.242;20.886;2023-03-23T12:47:32;6.25;;;3.35;;
32523;SDS011;18965;52.242;20.886;2023-03-23T12:50:24;6.80;;;3.63;;
32523;SDS011;18965;52.242;20.886;2023-03-23T12:55:49;5.72;;;3.38;;
32523;SDS011;18965;52.242;20.886;2023-03-23T12:58:44;9.52;;;3.75;;
32523;SDS011;18965;52.242;20.886;2023-03-23T13:01:14;13.55;;;3.78;;
32523;SDS011;18965;52.242;20.886;2023-03-23T13:06:46;5.82;;;4.03;;
32523;SDS011;18965;52.242;20.886;2023-03-23T13:11:58;5.82;;;4.10;;
32523;SDS011;18965;52.242;20.886;2023-03-23T13:17:10;7.25;;;3.92;;
32523;SDS011;18965;52.242;20.886;2023-03-23T13:28:03;6.25;;;3.67;;
32523;SDS011;18965;52.242;20.886;2023-03-23T13:30:30;8.18;;;3.83;;
32523;SDS011;18965;52.242;20.886;2023-03-23T13:33:05;7.95;;;3.70;;
32523;SDS011;18965;52.242;20.886;2023-03-23T13:35:37;5.43;;;3.65;;
32523;SDS011;18965;52.242;20.886;2023-03-23T13:38:43;7.40;;;3.33;;
32523;SDS011;18965;52.242;20.886;2023-03-23T13:40:58;7.55;;;3.30;;
32523;SDS011;18965;52.242;20.886;2023-03-23T13:43:33;4.82;;;2.95;;
32523;SDS011;18965;52.242;20.886;2023-03-23T13:48:39;8.30;;;3.15;;
32523;SDS011;18965;52.242;20.886;2023-03-23T13:51:23;4.63;;;3.00;;
32523;SDS011;18965;52.242;20.886;2023-03-23T13:54:03;6.38;;;3.03;;
32523;SDS011;18965;52.242;20.886;2023-03-23T13:56:47;5.10;;;2.65;;
32523;SDS011;18965;52.242;20.886;2023-03-23T14:01:53;5.90;;;3.33;;
32523;SDS011;18965;52.242;20.886;2023-03-23T14:04:23;5.03;;;2.85;;
32523;SDS011;18965;52.242;20.886;2023-03-23T14:07:08;7.60;;;3.58;;
32523;SDS011;18965;52.242;20.886;2023-03-23T14:09:38;4.95;;;3.40;;
32523;SDS011;18965;52.242;20.886;2023-03-23T14:12:21;5.75;;;3.25;;
32523;SDS011;18965;52.242;20.886;2023-03-23T14:14:56;8.05;;;3.17;;
32523;SDS011;18965;52.242;20.886;2023-03-23T14:17:30;5.65;;;3.50;;
32523;SDS011;18965;52.242;20.886;2023-03-23T14:19:59;5.13;;;3.50;;
32523;SDS011;18965;52.242;20.886;2023-03-23T14:22:27;9.35;;;4.40;;
32523;SDS011;18965;52.242;20.886;2023-03-23T14:25:01;7.55;;;3.70;;
32523;SDS011;18965;52.242;20.886;2023-03-23T14:27:40;6.15;;;3.80;;
32523;SDS011;18965;52.242;20.886;2023-03-23T14:30:08;7.80;;;4.07;;
32523;SDS011;18965;52.242;20.886;2023-03-23T14:32:39;6.20;;;3.53;;
32523;SDS011;18965;52.242;20.886;2023-03-23T14:35:29;5.70;;;3.30;;
32523;SDS011;18965;52.242;20.886;2023-03-23T14:38:03;5.82;;;3.58;;
32523;SDS011;18965;52.242;20.886;2023-03-23T14:40:39;6.50;;;4.18;;
32523;SDS011;18965;52.242;20.886;2023-03-23T14:43:05;6.15;;;4.10;;
32523;SDS011;18965;52.242;20.886;2023-03-23T14:45:36;6.13;;;3.78;;
32523;SDS011;18965;52.242;20.886;2023-03-23T14:48:04;7.35;;;3.90;;
32523;SDS011;18965;52.242;20.886;2023-03-23T14:50:38;6.57;;;4.63;;
32523;SDS011;18965;52.242;20.886;2023-03-23T14:53:18;6.38;;;4.13;;
32523;SDS011;18965;52.242;20.886;2023-03-23T14:58:14;7.43;;;4.25;;
32523;SDS011;18965;52.242;20.886;2023-03-23T15:00:43;5.40;;;4.43;;
32523;SDS011;18965;52.242;20.886;2023-03-23T15:03:28;7.07;;;4.45;;
32523;SDS011;18965;52.242;20.886;2023-03-23T15:06:05;6.13;;;4.30;;
32523;SDS011;18965;52.242;20.886;2023-03-23T15:08:37;5.50;;;4.53;;
32523;SDS011;18965;52.242;20.886;2023-03-23T15:11:22;13.10;;;4.88;;
32523;SDS011;18965;52.242;20.886;2023-03-23T15:13:53;7.05;;;4.30;;
32523;SDS011;18965;52.242;20.886;2023-03-23T15:18:51;7.43;;;4.47;;
32523;SDS011;18965;52.242;20.886;2023-03-23T15:21:47;5.97;;;4.22;;
32523;SDS011;18965;52.242;20.886;2023-03-23T15:24:46;7.35;;;4.47;;
32523;SDS011;18965;52.242;20.886;2023-03-23T15:29:31;6.63;;;3.90;;
32523;SDS011;18965;52.242;20.886;2023-03-23T15:31:57;10.20;;;4.38;;
32523;SDS011;18965;52.242;20.886;2023-03-23T15:34:25;9.32;;;4.20;;
32523;SDS011;18965;52.242;20.886;2023-03-23T15:36:58;6.88;;;4.20;;
32523;SDS011;18965;52.242;20.886;2023-03-23T15:39:27;8.25;;;4.13;;
32523;SDS011;18965;52.242;20.886;2023-03-23T15:41:53;9.20;;;4.22;;
32523;SDS011;18965;52.242;20.886;2023-03-23T15:44:41;6.18;;;3.92;;
32523;SDS011;18965;52.242;20.886;2023-03-23T15:47:14;7.47;;;4.20;;
32523;SDS011;18965;52.242;20.886;2023-03-23T15:49:42;9.57;;;4.60;;
32523;SDS011;18965;52.242;20.886;2023-03-23T15:54:38;6.40;;;3.95;;
32523;SDS011;18965;52.242;20.886;2023-03-23T15:57:11;8.73;;;4.47;;
32523;SDS011;18965;52.242;20.886;2023-03-23T15:59:37;7.18;;;4.40;;
32523;SDS011;18965;52.242;20.886;2023-03-23T16:02:03;7.28;;;4.05;;
32523;SDS011;18965;52.242;20.886;2023-03-23T16:04:29;6.45;;;4.47;;
32523;SDS011;18965;52.242;20.886;2023-03-23T16:06:57;9.40;;;4.50;;
32523;SDS011;18965;52.242;20.886;2023-03-23T16:09:23;8.95;;;4.90;;
32523;SDS011;18965;52.242;20.886;2023-03-23T16:11:50;8.55;;;5.65;;
32523;SDS011;18965;52.242;20.886;2023-03-23T16:14:15;8.73;;;5.50;;
32523;SDS011;18965;52.242;20.886;2023-03-23T16:16:43;7.47;;;5.32;;
32523;SDS011;18965;52.242;20.886;2023-03-23T16:19:11;9.00;;;5.05;;
32523;SDS011;18965;52.242;20.886;2023-03-23T16:21:38;10.25;;;4.53;;
32523;SDS011;18965;52.242;20.886;2023-03-23T16:24:05;8.45;;;4.70;;
32523;SDS011;18965;52.242;20.886;2023-03-23T16:26:32;8.20;;;4.35;;
32523;SDS011;18965;52.242;20.886;2023-03-23T16:28:58;7.03;;;4.10;;
32523;SDS011;18965;52.242;20.886;2023-03-23T16:31:24;10.38;;;4.15;;
32523;SDS011;18965;52.242;20.886;2023-03-23T16:33:50;6.18;;;3.83;;
32523;SDS011;18965;52.242;20.886;2023-03-23T16:36:16;9.23;;;4.35;;
32523;SDS011;18965;52.242;20.886;2023-03-23T16:38:42;8.32;;;3.95;;
32523;SDS011;18965;52.242;20.886;2023-03-23T16:41:10;6.03;;;3.90;;
32523;SDS011;18965;52.242;20.886;2023-03-23T16:43:36;8.32;;;4.20;;
32523;SDS011;18965;52.242;20.886;2023-03-23T16:46:02;12.73;;;4.28;;
32523;SDS011;18965;52.242;20.886;2023-03-23T16:48:28;6.55;;;3.95;;
32523;SDS011;18965;52.242;20.886;2023-03-23T16:50:54;8.20;;;4.95;;
32523;SDS011;18965;52.242;20.886;2023-03-23T16:53:20;7.85;;;5.50;;
32523;SDS011;18965;52.242;20.886;2023-03-23T16:55:46;8.38;;;4.72;;
32523;SDS011;18965;52.242;20.886;2023-03-23T16:58:14;6.45;;;4.40;;
32523;SDS011;18965;52.242;20.886;2023-03-23T17:00:41;6.60;;;4.50;;